Time;durP1;ratioP1;P1;durP2;ratioP2;P2;SDS_P1;SDS_P2;PMS_P1;PMS_P2;Temp;Humidity;BMP_temperature;BMP_pressure;BME280_temperature;BME280_humidity;BME280_pressure;Samples;Min_cycle;Max_cycle;Signal;HPM_P1;HPM_P2
2023/05/05 00:01:52;;;;;;;9.97;6.80;;;17.20;22.40;;;;;;5096441;28;20386;-72
2023/05/05 00:04:21;;;;;;;9.68;7.10;;;17.20;22.90;;;;;;5095571;28;20382;-73
2023/05/05 00:06:47;;;;;;;10.00;6.63;;;17.20;23.30;;;;;;5096086;28;20900;-73
2023/05/05 00:09:13;;;;;;;12.75;6.72;;;17.30;22.10;;;;;;5097932;28;20797;-72
2023/05/05 00:11:38;;;;;;;8.07;6.20;;;17.40;21.90;;;;;;5098474;28;20389;-72
2023/05/05 00:14:04;;;;;;;9.83;5.73;;;17.40;21.70;;;;;;5099875;28;20374;-72
2023/05/05 00:16:29;;;;;;;8.40;6.25;;;17.40;21.70;;;;;;5082700;28;20457;-72
2023/05/05 00:18:55;;;;;;;8.70;6.80;;;17.30;22.10;;;;;;5098740;28;20392;-74
2023/05/05 00:21:20;;;;;;;13.10;7.20;;;17.20;22.90;;;;;;5095378;28;20396;-74
2023/05/05 00:23:46;;;;;;;11.80;6.80;;;17.20;23.40;;;;;;5095378;28;20462;-73
2023/05/05 00:26:11;;;;;;;8.95;6.30;;;17.00;24.10;;;;;;5078265;28;20396;-72
2023/05/05 00:28:37;;;;;;;10.63;6.90;;;17.00;24.00;;;;;;5098459;28;20476;-71
2023/05/05 00:31:03;;;;;;;7.90;6.30;;;16.90;24.60;;;;;;5097318;28;20382;-73
2023/05/05 00:33:28;;;;;;;8.85;6.47;;;16.70;25.20;;;;;;5097954;28;20406;-72
2023/05/05 00:35:54;;;;;;;10.33;6.60;;;16.60;26.10;;;;;;5098910;28;20378;-72
2023/05/05 00:38:19;;;;;;;8.77;6.50;;;16.50;26.10;;;;;;5097074;28;20414;-71
2023/05/05 00:40:45;;;;;;;7.53;6.00;;;16.50;26.70;;;;;;5095026;28;20385;-73
2023/05/05 00:43:11;;;;;;;11.32;6.90;;;16.50;26.50;;;;;;5094163;28;20468;-74
2023/05/05 00:45:41;;;;;;;11.00;6.93;;;16.40;26.60;;;;;;5094088;28;20385;-74
2023/05/05 00:48:08;;;;;;;10.57;6.72;;;16.30;27.60;;;;;;5094027;28;20396;-73
2023/05/05 00:50:33;;;;;;;9.45;6.75;;;16.20;29.20;;;;;;5093645;28;20398;-73
2023/05/05 00:53:04;;;;;;;10.60;6.90;;;16.10;29.50;;;;;;5093287;28;20378;-73
2023/05/05 00:55:31;;;;;;;9.70;6.38;;;16.10;29.30;;;;;;5093483;28;20785;-74
2023/05/05 00:57:58;;;;;;;9.05;6.88;;;16.20;29.30;;;;;;5093732;28;20477;-72
2023/05/05 01:00:23;;;;;;;9.80;6.20;;;16.30;29.40;;;;;;5093421;28;20451;-74
2023/05/05 01:02:50;;;;;;;12.50;7.78;;;16.30;29.10;;;;;;5092003;28;20382;-73
2023/05/05 01:05:17;;;;;;;8.85;7.03;;;16.30;29.20;;;;;;5093982;28;20381;-73
2023/05/05 01:07:45;;;;;;;11.63;6.93;;;16.30;29.50;;;;;;5093596;28;20462;-73
2023/05/05 01:10:41;;;;;;;10.25;6.88;;;16.10;29.80;;;;;;5093205;28;20410;-74
2023/05/05 01:13:22;;;;;;;13.90;7.70;;;15.90;30.70;;;;;;5087948;28;20436;-73
2023/05/05 01:15:57;;;;;;;7.35;6.53;;;16.00;31.40;;;;;;5093252;28;20374;-71
2023/05/05 01:18:42;;;;;;;10.88;6.88;;;15.90;31.00;;;;;;5094155;28;20378;-73
2023/05/05 01:21:26;;;;;;;13.18;7.40;;;15.70;31.20;;;;;;5074319;28;20432;-73
2023/05/05 01:24:16;;;;;;;10.80;7.40;;;15.80;31.20;;;;;;5096026;28;20385;-74
2023/05/05 01:27:18;;;;;;;12.48;6.70;;;15.70;32.90;;;;;;5099233;28;20374;-73
2023/05/05 01:30:02;;;;;;;12.60;7.80;;;15.50;33.50;;;;;;5107488;28;20420;-72
2023/05/05 01:32:32;;;;;;;11.38;8.50;;;15.60;34.30;;;;;;5096417;28;20381;-72
2023/05/05 01:35:19;;;;;;;13.10;7.32;;;15.60;34.70;;;;;;5092714;28;20375;-71
2023/05/05 01:38:01;;;;;;;12.82;8.50;;;15.50;34.70;;;;;;5092887;28;20370;-72
2023/05/05 01:40:32;;;;;;;12.07;8.00;;;15.40;35.80;;;;;;5092690;28;20746;-72
2023/05/05 01:43:00;;;;;;;11.40;8.27;;;15.30;36.50;;;;;;5073942;28;20402;-72
2023/05/05 01:45:30;;;;;;;11.03;8.20;;;15.20;36.90;;;;;;5092610;28;20514;-73
2023/05/05 01:47:57;;;;;;;12.05;7.40;;;15.40;36.70;;;;;;5092589;28;20866;-73
2023/05/05 01:50:26;;;;;;;14.35;8.10;;;15.40;36.80;;;;;;5092450;28;20394;-73
2023/05/05 01:52:52;;;;;;;14.10;7.03;;;15.50;35.40;;;;;;5091839;28;20397;-71
2023/05/05 01:55:20;;;;;;;10.88;6.70;;;15.50;35.40;;;;;;5092447;28;20858;-73
2023/05/05 01:57:47;;;;;;;9.13;7.43;;;15.70;32.80;;;;;;5092246;28;20408;-73
2023/05/05 02:00:15;;;;;;;10.35;7.20;;;15.70;33.30;;;;;;5092300;28;20394;-73
2023/05/05 02:02:46;;;;;;;12.02;7.60;;;15.60;33.80;;;;;;5091681;28;20382;-72
2023/05/05 02:05:13;;;;;;;12.50;7.78;;;15.50;33.40;;;;;;5092228;28;20405;-72
2023/05/05 02:07:39;;;;;;;10.07;7.28;;;15.40;34.70;;;;;;5092649;28;20389;-73
2023/05/05 02:10:06;;;;;;;15.90;7.28;;;15.30;35.20;;;;;;5092002;28;20783;-73
2023/05/05 02:12:34;;;;;;;10.02;6.80;;;15.20;35.40;;;;;;5091669;28;20378;-73
2023/05/05 02:15:02;;;;;;;9.38;5.93;;;15.20;35.80;;;;;;5092160;28;20378;-72
2023/05/05 02:17:29;;;;;;;10.80;7.55;;;15.10;36.20;;;;;;5074206;28;20382;-72
2023/05/05 02:19:57;;;;;;;12.35;7.25;;;14.90;37.30;;;;;;5092632;28;20469;-73
2023/05/05 02:22:23;;;;;;;13.55;7.70;;;14.80;38.70;;;;;;5092050;28;20803;-72
2023/05/05 02:24:49;;;;;;;11.10;7.50;;;14.70;39.70;;;;;;5092482;28;20425;-73
2023/05/05 02:27:17;;;;;;;15.50;7.90;;;14.60;40.70;;;;;;5095361;28;20414;-72
2023/05/05 02:29:57;;;;;;;11.15;7.13;;;14.60;42.20;;;;;;5091593;28;20735;-72
2023/05/05 02:32:30;;;;;;;11.18;7.88;;;14.60;41.30;;;;;;5091218;28;20401;-74
2023/05/05 02:35:00;;;;;;;13.65;8.60;;;14.80;40.10;;;;;;5092355;28;20385;-72
2023/05/05 02:37:28;;;;;;;12.55;8.10;;;14.80;40.00;;;;;;5091836;28;20386;-71
2023/05/05 02:40:01;;;;;;;13.02;8.10;;;14.80;40.30;;;;;;5091748;28;20805;-71
2023/05/05 02:42:33;;;;;;;11.35;7.68;;;14.80;41.60;;;;;;5073356;28;20919;-71
2023/05/05 02:45:03;;;;;;;10.60;7.85;;;14.80;41.20;;;;;;5092526;28;20893;-72
2023/05/05 02:47:35;;;;;;;15.75;8.40;;;14.70;42.00;;;;;;5091842;28;20385;-73
2023/05/05 02:50:02;;;;;;;18.00;8.07;;;14.80;42.10;;;;;;5091689;28;20394;-74
2023/05/05 02:52:27;;;;;;;14.57;7.83;;;14.70;42.80;;;;;;5091367;28;20396;-73
2023/05/05 02:54:53;;;;;;;13.83;8.90;;;14.80;42.10;;;;;;5074077;28;20469;-72
2023/05/05 02:57:23;;;;;;;13.23;9.00;;;14.80;42.50;;;;;;5091172;28;20731;-72
2023/05/05 02:59:56;;;;;;;15.30;8.07;;;14.80;43.90;;;;;;5091272;28;21253;-72
2023/05/05 03:02:53;;;;;;;11.20;8.77;;;14.80;43.20;;;;;;5090551;28;20415;-72
2023/05/05 03:05:22;;;;;;;13.80;8.68;;;14.90;44.20;;;;;;5091251;28;20517;-73
2023/05/05 03:07:57;;;;;;;12.32;8.50;;;14.90;44.30;;;;;;5090987;28;20389;-72
2023/05/05 03:10:28;;;;;;;12.55;8.70;;;14.90;43.90;;;;;;5090900;28;20766;-72
2023/05/05 03:12:58;;;;;;;16.90;8.80;;;15.00;43.90;;;;;;5090757;28;20509;-72
2023/05/05 03:15:39;;;;;;;11.80;8.48;;;15.00;44.10;;;;;;5091125;28;20464;-72
2023/05/05 03:18:07;;;;;;;15.15;8.35;;;14.90;44.70;;;;;;5091160;28;20374;-73
2023/05/05 03:20:33;;;;;;;13.45;9.10;;;14.90;45.40;;;;;;5091534;28;20408;-74
2023/05/05 03:23:00;;;;;;;14.25;8.90;;;14.90;45.40;;;;;;5090604;28;20426;-74
2023/05/05 03:25:52;;;;;;;15.63;8.60;;;14.90;46.30;;;;;;5090564;28;20898;-74
2023/05/05 03:28:18;;;;;;;14.98;9.20;;;14.80;47.90;;;;;;5085853;28;20440;-72
2023/05/05 03:30:43;;;;;;;12.00;9.17;;;14.60;49.20;;;;;;5090779;28;20422;-75
2023/05/05 03:33:10;;;;;;;16.87;9.73;;;14.60;49.90;;;;;;5072513;28;20386;-73
2023/05/05 03:35:35;;;;;;;14.88;10.10;;;14.40;50.40;;;;;;5090732;28;20378;-74
2023/05/05 03:38:01;;;;;;;14.30;9.60;;;14.30;52.20;;;;;;5091238;28;20380;-73
2023/05/05 03:40:26;;;;;;;17.83;9.50;;;14.30;53.00;;;;;;5090810;28;20425;-72
2023/05/05 03:42:52;;;;;;;13.30;9.50;;;14.20;53.70;;;;;;5090172;28;20378;-72
2023/05/05 03:45:18;;;;;;;15.73;10.00;;;14.10;55.60;;;;;;5090253;28;20729;-74
2023/05/05 03:47:43;;;;;;;12.93;9.50;;;14.00;56.40;;;;;;5090878;28;20425;-73
2023/05/05 03:50:09;;;;;;;15.18;10.40;;;14.00;56.60;;;;;;5090948;28;20427;-72
2023/05/05 03:52:35;;;;;;;15.25;9.40;;;14.00;57.60;;;;;;5090312;28;20378;-72
2023/05/05 03:55:00;;;;;;;16.17;10.20;;;14.10;57.80;;;;;;5091225;28;20463;-72
2023/05/05 03:57:26;;;;;;;16.43;10.37;;;14.30;57.30;;;;;;5090903;28;20719;-73
2023/05/05 03:59:52;;;;;;;12.67;9.70;;;14.30;56.70;;;;;;5072365;28;20796;-73
2023/05/05 04:02:18;;;;;;;14.85;9.68;;;14.40;56.20;;;;;;5090123;28;20409;-73
2023/05/05 04:04:43;;;;;;;16.02;9.90;;;14.50;56.00;;;;;;5090403;28;20421;-73
2023/05/05 04:07:10;;;;;;;14.93;10.37;;;14.50;55.90;;;;;;5090665;28;20381;-73
2023/05/05 04:09:36;;;;;;;12.85;10.10;;;14.50;55.70;;;;;;5090392;28;20917;-73
2023/05/05 04:12:01;;;;;;;18.92;9.80;;;14.50;55.60;;;;;;5089897;28;20382;-73
2023/05/05 04:14:27;;;;;;;14.75;9.68;;;14.50;55.60;;;;;;5090392;28;20382;-72
2023/05/05 04:16:53;;;;;;;18.03;10.63;;;14.50;56.10;;;;;;5090673;28;20457;-72
2023/05/05 04:19:19;;;;;;;14.80;9.93;;;14.40;56.90;;;;;;5072231;28;20477;-73
2023/05/05 04:21:44;;;;;;;13.38;9.90;;;14.40;56.20;;;;;;5089699;28;20882;-73
2023/05/05 04:24:10;;;;;;;14.40;9.80;;;14.50;55.60;;;;;;5090505;28;20482;-72
2023/05/05 04:26:36;;;;;;;14.30;9.83;;;14.60;54.90;;;;;;5090718;28;20440;-73
2023/05/05 04:29:01;;;;;;;15.10;10.70;;;14.80;53.90;;;;;;5090594;28;20402;-73
2023/05/05 04:31:27;;;;;;;15.50;10.47;;;14.80;53.00;;;;;;5071510;28;20391;-73
2023/05/05 04:33:52;;;;;;;14.53;10.63;;;14.90;52.70;;;;;;5090794;28;20432;-74
2023/05/05 04:36:18;;;;;;;19.05;10.35;;;14.90;52.10;;;;;;5090334;28;20382;-75
2023/05/05 04:38:43;;;;;;;19.17;10.90;;;14.80;52.40;;;;;;5093373;28;20754;-74
2023/05/05 04:41:09;;;;;;;14.60;10.97;;;14.80;52.50;;;;;;5093149;28;20388;-74
2023/05/05 04:43:35;;;;;;;17.20;11.20;;;14.60;54.20;;;;;;5093803;28;20378;-73
2023/05/05 04:46:00;;;;;;;19.08;11.55;;;14.50;55.90;;;;;;5093866;28;20784;-72
2023/05/05 04:48:26;;;;;;;19.85;11.13;;;14.40;57.10;;;;;;5075621;28;20414;-75
2023/05/05 04:50:51;;;;;;;14.60;11.00;;;14.30;58.20;;;;;;5093083;28;20459;-72
2023/05/05 04:53:17;;;;;;;19.43;11.27;;;14.30;59.30;;;;;;5093704;28;20866;-73
2023/05/05 04:55:42;;;;;;;18.57;12.30;;;14.30;59.90;;;;;;5093630;28;20413;-73
2023/05/05 04:58:08;;;;;;;16.10;10.88;;;14.20;60.70;;;;;;5094460;28;20380;-74
2023/05/05 05:00:36;;;;;;;16.60;12.20;;;14.30;61.20;;;;;;5093591;28;20382;-73
2023/05/05 05:03:01;;;;;;;15.52;11.80;;;14.30;61.30;;;;;;5093331;28;20416;-76
2023/05/05 05:05:27;;;;;;;19.23;12.07;;;14.40;61.30;;;;;;5093955;28;20414;-73
2023/05/05 05:07:52;;;;;;;18.87;12.17;;;14.40;61.20;;;;;;5093403;28;20381;-73
2023/05/05 05:10:18;;;;;;;18.10;12.57;;;14.40;62.30;;;;;;5075007;28;20489;-73
2023/05/05 05:12:46;;;;;;;17.67;12.63;;;14.40;62.30;;;;;;5092660;28;20390;-74
2023/05/05 05:15:12;;;;;;;18.92;13.27;;;14.40;62.50;;;;;;5093494;28;20406;-74
2023/05/05 05:17:37;;;;;;;21.13;13.38;;;14.50;61.90;;;;;;5093288;28;20385;-74
2023/05/05 05:20:03;;;;;;;15.77;12.17;;;14.70;60.60;;;;;;5093050;28;20747;-72
2023/05/05 05:22:30;;;;;;;27.35;14.63;;;14.70;59.90;;;;;;5074615;28;20460;-73
2023/05/05 05:24:55;;;;;;;21.50;15.03;;;14.80;61.30;;;;;;5093096;28;20758;-73
2023/05/05 05:27:21;;;;;;;22.97;15.00;;;14.90;61.20;;;;;;5074871;28;20382;-72
2023/05/05 05:29:46;;;;;;;20.50;14.30;;;15.10;61.20;;;;;;5092733;28;20405;-74
2023/05/05 05:32:12;;;;;;;26.38;17.42;;;15.30;59.60;;;;;;5092408;28;20393;-74
2023/05/05 05:34:37;;;;;;;27.97;20.00;;;15.50;59.20;;;;;;5095182;28;20382;-75
2023/05/05 05:37:03;;;;;;;30.33;20.30;;;15.60;61.60;;;;;;5094953;28;20389;-73
2023/05/05 05:39:28;;;;;;;34.45;21.33;;;15.60;62.20;;;;;;5094058;28;20373;-75
2023/05/05 05:41:54;;;;;;;31.70;21.63;;;15.80;64.80;;;;;;5093015;28;20389;-75
2023/05/05 05:44:20;;;;;;;32.77;22.90;;;15.90;64.40;;;;;;5092825;28;20431;-74
2023/05/05 05:46:45;;;;;;;31.77;21.87;;;16.00;63.20;;;;;;5092395;28;20386;-71
2023/05/05 05:49:11;;;;;;;30.45;20.83;;;16.00;63.60;;;;;;5074040;28;20835;-74
2023/05/05 05:51:36;;;;;;;32.63;20.58;;;16.00;64.10;;;;;;5092011;28;20390;-74
2023/05/05 05:54:02;;;;;;;35.80;22.60;;;16.30;60.80;;;;;;5092873;28;20684;-74
2023/05/05 05:56:27;;;;;;;32.90;23.17;;;16.30;60.60;;;;;;5092718;28;20378;-75
2023/05/05 05:58:53;;;;;;;30.30;22.60;;;16.40;58.80;;;;;;5093057;28;20428;-73
2023/05/05 06:01:18;;;;;;;30.93;21.67;;;16.50;58.30;;;;;;5092155;28;20426;-74
2023/05/05 06:03:44;;;;;;;32.20;22.20;;;16.60;57.50;;;;;;5092870;28;20882;-72
2023/05/05 06:06:10;;;;;;;34.08;22.60;;;16.80;55.50;;;;;;5092964;28;20378;-74
2023/05/05 06:08:35;;;;;;;35.80;21.97;;;16.80;56.60;;;;;;5092736;28;20807;-74
2023/05/05 06:11:01;;;;;;;35.37;22.20;;;16.90;55.20;;;;;;5073955;28;20386;-74
2023/05/05 06:13:26;;;;;;;34.78;22.83;;;17.00;53.20;;;;;;5092824;28;20447;-74
2023/05/05 06:15:52;;;;;;;32.83;23.07;;;17.10;52.30;;;;;;5092311;28;20792;-73
2023/05/05 06:18:17;;;;;;;32.67;22.07;;;17.20;51.30;;;;;;5092352;28;20386;-75
2023/05/05 06:20:43;;;;;;;36.90;23.42;;;17.20;50.60;;;;;;5073799;28;20393;-74
2023/05/05 06:23:09;;;;;;;34.95;21.40;;;17.40;49.00;;;;;;5091583;28;20473;-74
2023/05/05 06:25:35;;;;;;;36.47;22.73;;;17.60;47.40;;;;;;5091651;28;20812;-74
2023/05/05 06:28:00;;;;;;;30.15;22.27;;;17.60;46.40;;;;;;5092204;28;20389;-74
2023/05/05 06:30:26;;;;;;;33.20;22.53;;;17.70;46.60;;;;;;5091394;28;20402;-73
2023/05/05 06:32:53;;;;;;;30.73;20.53;;;17.90;44.50;;;;;;5091300;28;20374;-75
2023/05/05 06:35:19;;;;;;;28.02;20.08;;;18.00;41.50;;;;;;5091990;28;20397;-73
2023/05/05 06:37:44;;;;;;;34.88;22.13;;;18.30;40.50;;;;;;5092301;28;20378;-73
2023/05/05 06:40:10;;;;;;;32.15;21.55;;;18.30;40.50;;;;;;5092666;28;20389;-74
2023/05/05 06:42:36;;;;;;;27.40;18.52;;;18.30;40.80;;;;;;5074242;28;20395;-73
2023/05/05 06:45:02;;;;;;;26.38;18.50;;;18.40;38.30;;;;;;5092889;28;20401;-74
2023/05/05 06:47:27;;;;;;;26.07;15.60;;;18.50;37.50;;;;;;5074826;28;20421;-73
2023/05/05 06:49:53;;;;;;;21.85;12.93;;;18.60;35.00;;;;;;5095813;28;20398;-72
2023/05/05 06:52:18;;;;;;;17.33;12.60;;;18.80;32.30;;;;;;5093595;28;20386;-73
2023/05/05 06:54:44;;;;;;;17.13;12.00;;;18.80;32.50;;;;;;5074186;28;20442;-72
2023/05/05 06:57:09;;;;;;;18.60;11.60;;;18.90;31.20;;;;;;5092796;28;20385;-75
2023/05/05 06:59:35;;;;;;;19.60;11.70;;;19.00;31.00;;;;;;5092027;28;20410;-75
2023/05/05 07:02:01;;;;;;;16.30;11.10;;;19.00;30.60;;;;;;5093552;28;20385;-73
2023/05/05 07:04:27;;;;;;;15.97;11.70;;;19.10;30.80;;;;;;5099991;28;20370;-73
2023/05/05 07:06:54;;;;;;;16.92;10.57;;;19.20;30.80;;;;;;5099061;28;20378;-74
2023/05/05 07:09:19;;;;;;;15.43;10.20;;;19.10;30.90;;;;;;5092747;28;20404;-75
2023/05/05 07:11:45;;;;;;;14.18;9.50;;;19.00;31.00;;;;;;5092241;28;20565;-73
2023/05/05 07:14:11;;;;;;;15.48;10.30;;;19.00;31.70;;;;;;5092068;28;20472;-74
2023/05/05 07:16:37;;;;;;;15.30;9.40;;;19.10;31.20;;;;;;5091641;28;20384;-75
2023/05/05 07:19:06;;;;;;;12.00;8.90;;;19.20;31.40;;;;;;5092281;28;20386;-74
2023/05/05 07:21:35;;;;;;;12.90;9.00;;;19.30;30.70;;;;;;5090923;28;20943;-75
2023/05/05 07:24:02;;;;;;;14.65;9.27;;;19.30;30.00;;;;;;5091717;28;20390;-74
2023/05/05 07:26:28;;;;;;;13.95;8.60;;;19.20;29.50;;;;;;5091610;28;20912;-74
2023/05/05 07:28:57;;;;;;;11.50;8.40;;;19.30;29.30;;;;;;5091522;28;20405;-75
2023/05/05 07:31:23;;;;;;;10.40;8.00;;;19.50;28.50;;;;;;5090721;28;20824;-74
2023/05/05 07:33:49;;;;;;;13.70;9.00;;;19.60;28.20;;;;;;5092368;28;20407;-74
2023/05/05 07:36:18;;;;;;;13.70;9.80;;;19.60;28.30;;;;;;5091306;28;20374;-75
2023/05/05 07:38:44;;;;;;;15.10;10.90;;;19.50;28.90;;;;;;5091425;28;20385;-74
2023/05/05 07:41:12;;;;;;;19.13;11.40;;;19.40;29.30;;;;;;5091242;28;20378;-75
2023/05/05 07:43:41;;;;;;;18.48;11.40;;;19.50;29.20;;;;;;5091421;28;20471;-75
2023/05/05 07:46:07;;;;;;;20.45;12.57;;;19.80;28.80;;;;;;5091328;28;20459;-75
2023/05/05 07:48:33;;;;;;;21.70;13.60;;;19.60;29.70;;;;;;5091628;28;20870;-75
2023/05/05 07:50:58;;;;;;;17.52;13.45;;;19.60;29.90;;;;;;5090514;28;20430;-74
2023/05/05 07:53:24;;;;;;;21.42;14.00;;;19.80;29.00;;;;;;5091399;28;20414;-73
2023/05/05 07:55:50;;;;;;;24.23;14.23;;;19.90;29.10;;;;;;5073589;28;20390;-74
2023/05/05 07:58:15;;;;;;;20.27;14.93;;;19.50;30.90;;;;;;5091483;28;20728;-75
2023/05/05 08:00:42;;;;;;;23.73;16.58;;;19.30;32.00;;;;;;5091047;28;20797;-73
2023/05/05 08:03:08;;;;;;;23.48;15.55;;;19.30;33.20;;;;;;5090537;28;20389;-75
2023/05/05 08:05:34;;;;;;;25.13;16.40;;;19.50;31.80;;;;;;5091040;28;20382;-75
2023/05/05 08:08:00;;;;;;;24.58;17.08;;;19.60;31.10;;;;;;5091105;28;20378;-74
2023/05/05 08:10:26;;;;;;;24.58;16.00;;;19.90;30.90;;;;;;5090704;28;20413;-75
2023/05/05 08:12:53;;;;;;;24.47;16.20;;;20.00;29.00;;;;;;5093860;28;20378;-76
2023/05/05 08:15:18;;;;;;;26.10;16.75;;;20.10;27.50;;;;;;5094735;28;20378;-74
2023/05/05 08:17:48;;;;;;;26.37;16.47;;;20.40;27.30;;;;;;5076495;28;20389;-72
2023/05/05 08:20:14;;;;;;;23.27;16.60;;;20.70;26.90;;;;;;5095226;28;20386;-74
2023/05/05 08:22:41;;;;;;;22.73;16.80;;;21.00;25.10;;;;;;5094309;28;20386;-74
2023/05/05 08:25:07;;;;;;;20.70;14.98;;;21.30;23.50;;;;;;5095236;28;20439;-74
2023/05/05 08:27:34;;;;;;;23.20;14.13;;;21.40;22.50;;;;;;5094730;28;20390;-74
2023/05/05 08:30:00;;;;;;;20.00;14.10;;;21.00;24.40;;;;;;5095034;28;20394;-73
2023/05/05 08:32:26;;;;;;;22.97;14.97;;;20.10;28.10;;;;;;5093894;28;20473;-76
2023/05/05 08:34:51;;;;;;;29.63;22.70;;;20.10;28.30;;;;;;5094534;28;20800;-73
2023/05/05 08:37:17;;;;;;;21.73;12.80;;;20.30;27.80;;;;;;5094782;28;20433;-74
2023/05/05 08:39:43;;;;;;;18.65;13.10;;;20.20;28.60;;;;;;5094308;28;20378;-73
2023/05/05 08:42:09;;;;;;;20.67;14.30;;;20.20;28.40;;;;;;5094076;28;20382;-74
2023/05/05 08:44:35;;;;;;;23.70;15.15;;;20.50;28.00;;;;;;5094833;28;20739;-74
2023/05/05 08:47:01;;;;;;;23.05;14.30;;;20.60;27.90;;;;;;5095369;28;20755;-74
2023/05/05 08:49:34;;;;;;;19.33;13.57;;;20.50;27.60;;;;;;5094979;28;20393;-75
2023/05/05 08:52:02;;;;;;;22.00;15.18;;;20.40;28.50;;;;;;5076328;28;20845;-73
2023/05/05 08:54:31;;;;;;;24.40;14.37;;;20.20;29.20;;;;;;5093854;28;20897;-72
2023/05/05 08:57:01;;;;;;;23.25;14.48;;;20.30;29.20;;;;;;5075694;28;20389;-74
2023/05/05 08:59:31;;;;;;;22.63;15.50;;;20.50;28.00;;;;;;5096462;28;20394;-74
2023/05/05 09:01:58;;;;;;;21.20;15.15;;;20.80;26.90;;;;;;5095121;28;20467;-73
2023/05/05 09:04:23;;;;;;;23.48;15.80;;;21.10;26.20;;;;;;5094169;28;20874;-73
2023/05/05 09:06:49;;;;;;;21.23;13.43;;;21.20;26.20;;;;;;5093348;28;20378;-74
2023/05/05 09:09:15;;;;;;;23.87;13.67;;;21.30;25.40;;;;;;5093179;28;20816;-73
2023/05/05 09:11:43;;;;;;;21.65;12.98;;;21.70;24.80;;;;;;5074729;28;20410;-73
2023/05/05 09:14:08;;;;;;;16.30;12.15;;;22.30;22.30;;;;;;5093567;28;20378;-73
2023/05/05 09:16:34;;;;;;;19.00;13.47;;;22.20;21.50;;;;;;5093409;28;20476;-74
2023/05/05 09:19:03;;;;;;;18.87;13.10;;;22.40;21.10;;;;;;5093287;28;20638;-73
2023/05/05 09:21:29;;;;;;;20.15;12.23;;;22.30;21.30;;;;;;5092646;28;20401;-71
2023/05/05 09:24:11;;;;;;;20.13;12.43;;;21.90;22.00;;;;;;5092308;28;20476;-73
2023/05/05 09:26:42;;;;;;;16.92;10.55;;;21.60;24.30;;;;;;5093078;28;20374;-73
2023/05/05 09:29:08;;;;;;;16.02;10.70;;;21.60;23.80;;;;;;5093205;28;20394;-73
2023/05/05 09:31:35;;;;;;;22.17;10.35;;;21.50;23.30;;;;;;5092718;28;20378;-72
2023/05/05 09:34:13;;;;;;;17.45;10.07;;;21.50;24.10;;;;;;5075299;28;20425;-72
2023/05/05 09:36:43;;;;;;;11.88;5.97;;;21.50;24.00;;;;;;5093679;28;20382;-72
2023/05/05 09:39:08;;;;;;;9.48;4.50;;;21.50;21.70;;;;;;5093660;28;20385;-72
2023/05/05 09:41:43;;;;;;;7.37;5.00;;;21.40;20.20;;;;;;5092756;28;20382;-73
2023/05/05 09:44:09;;;;;;;9.60;4.25;;;21.30;20.20;;;;;;5094161;28;20762;-73
2023/05/05 09:46:34;;;;;;;6.72;4.40;;;21.70;20.50;;;;;;5094450;28;20397;-72
2023/05/05 09:49:17;;;;;;;10.07;4.93;;;22.10;19.30;;;;;;5093065;28;20398;-72
2023/05/05 09:51:46;;;;;;;7.07;5.10;;;22.80;17.80;;;;;;5092243;28;20950;-73
2023/05/05 09:54:28;;;;;;;3.33;2.42;;;23.10;16.60;;;;;;5092829;28;20381;-72
2023/05/05 09:56:55;;;;;;;2.38;2.00;;;23.40;14.90;;;;;;5092695;28;20469;-73
2023/05/05 09:59:22;;;;;;;1.75;1.60;;;23.60;12.90;;;;;;5093081;28;20795;-73
2023/05/05 10:01:49;;;;;;;5.00;2.60;;;23.70;12.80;;;;;;5092011;28;20439;-72
2023/05/05 10:04:26;;;;;;;5.60;3.50;;;23.60;14.10;;;;;;5091951;28;20387;-73
2023/05/05 10:06:53;;;;;;;8.63;5.30;;;23.60;14.90;;;;;;5092631;28;20792;-73
2023/05/05 10:09:18;;;;;;;9.95;5.90;;;23.50;15.80;;;;;;5092054;28;20401;-72
2023/05/05 10:11:46;;;;;;;11.20;5.60;;;23.40;16.00;;;;;;5073020;28;20401;-73
2023/05/05 10:14:14;;;;;;;10.30;5.80;;;23.90;15.10;;;;;;5092411;28;20381;-72
2023/05/05 10:16:48;;;;;;;9.88;5.20;;;23.50;15.80;;;;;;5092092;28;20385;-73
2023/05/05 10:19:15;;;;;;;8.95;5.35;;;23.60;15.90;;;;;;5092095;28;20393;-72
2023/05/05 10:21:49;;;;;;;9.52;6.10;;;23.10;16.40;;;;;;5091237;28;20390;-72
2023/05/05 10:24:46;;;;;;;12.98;5.97;;;22.60;17.70;;;;;;5073150;28;20513;-72
2023/05/05 10:27:18;;;;;;;10.05;6.15;;;22.60;18.40;;;;;;5082954;28;20390;-71
2023/05/05 10:29:44;;;;;;;11.55;6.90;;;22.50;18.30;;;;;;5092009;28;20486;-73
2023/05/05 10:32:34;;;;;;;10.50;6.70;;;22.30;18.80;;;;;;5091323;28;20401;-71
2023/05/05 10:35:02;;;;;;;10.30;6.00;;;22.60;18.10;;;;;;5092911;28;20423;-74
2023/05/05 10:37:28;;;;;;;9.45;5.47;;;23.10;17.30;;;;;;5091659;28;20396;-76
2023/05/05 10:39:56;;;;;;;9.85;5.82;;;23.70;15.90;;;;;;5091383;28;20397;-74
2023/05/05 10:42:22;;;;;;;7.40;5.60;;;24.00;15.20;;;;;;5090906;28;20438;-74
2023/05/05 10:44:52;;;;;;;11.35;5.70;;;24.20;15.00;;;;;;5091764;28;20385;-73
2023/05/05 10:47:19;;;;;;;11.30;6.70;;;24.30;14.90;;;;;;5092247;28;20747;-75
2023/05/05 10:49:56;;;;;;;7.10;5.22;;;24.50;13.80;;;;;;5092545;28;20390;-75
2023/05/05 10:52:39;;;;;;;10.55;5.78;;;24.50;13.80;;;;;;5096767;28;20386;-74
2023/05/05 10:55:38;;;;;;;10.77;5.60;;;24.60;13.50;;;;;;5097762;28;20377;-72
2023/05/05 10:58:04;;;;;;;9.40;5.63;;;24.70;13.60;;;;;;5099332;28;20381;-74
2023/05/05 11:00:39;;;;;;;8.00;5.17;;;24.60;13.50;;;;;;5082290;28;20398;-75
2023/05/05 11:03:17;;;;;;;9.77;5.57;;;24.40;13.40;;;;;;5099266;28;20393;-74
2023/05/05 11:06:06;;;;;;;7.20;5.33;;;24.00;14.50;;;;;;5092746;28;20386;-76
2023/05/05 11:08:33;;;;;;;7.05;4.80;;;24.20;14.20;;;;;;5092532;28;20362;-74
2023/05/05 11:11:00;;;;;;;10.05;4.90;;;23.90;14.90;;;;;;5092173;28;20401;-73
2023/05/05 11:13:25;;;;;;;11.63;5.20;;;23.60;15.80;;;;;;5092811;28;20406;-75
2023/05/05 11:15:53;;;;;;;10.43;5.60;;;23.00;16.90;;;;;;5076236;28;20370;-76
2023/05/05 11:18:35;;;;;;;8.27;5.38;;;22.70;17.90;;;;;;5094146;28;20862;-75
2023/05/05 11:21:01;;;;;;;12.38;5.90;;;22.40;18.70;;;;;;5075115;28;20402;-75
2023/05/05 11:23:28;;;;;;;10.35;6.20;;;22.10;20.50;;;;;;5094980;28;20381;-75
2023/05/05 11:25:56;;;;;;;10.55;6.60;;;22.00;20.00;;;;;;5078908;28;20443;-73
2023/05/05 11:28:28;;;;;;;12.45;6.10;;;21.80;22.90;;;;;;5104182;28;20465;-73
2023/05/05 11:30:54;;;;;;;16.50;7.22;;;21.60;25.90;;;;;;5103558;28;20433;-70
2023/05/05 11:33:24;;;;;;;12.07;6.28;;;21.20;28.70;;;;;;5102695;28;20382;-73
2023/05/05 11:36:10;;;;;;;14.02;6.70;;;20.90;30.70;;;;;;5103677;28;20405;-73
2023/05/05 11:39:10;;;;;;;16.25;5.80;;;20.80;31.30;;;;;;5100456;28;20461;-72
2023/05/05 11:41:58;;;;;;;9.40;5.30;;;20.50;33.60;;;;;;5080282;28;20469;-73
2023/05/05 11:44:31;;;;;;;8.27;4.90;;;20.40;26.90;;;;;;5102465;28;20562;-74
2023/05/05 11:46:58;;;;;;;6.65;3.10;;;20.40;21.00;;;;;;5077594;28;20413;-74
2023/05/05 11:49:27;;;;;;;6.13;2.70;;;20.20;19.00;;;;;;5095882;28;20966;-74
2023/05/05 11:52:11;;;;;;;4.80;2.10;;;20.00;19.10;;;;;;5097201;28;20382;-73
2023/05/05 11:54:39;;;;;;;3.00;1.55;;;19.90;19.40;;;;;;5098020;28;20711;-74
2023/05/05 11:57:06;;;;;;;5.20;2.20;;;19.90;18.90;;;;;;5096674;28;20382;-74
2023/05/05 11:59:49;;;;;;;3.25;1.60;;;19.70;20.20;;;;;;5096008;28;20386;-73
2023/05/05 12:02:18;;;;;;;6.40;1.90;;;19.20;21.50;;;;;;5094866;28;20939;-75
2023/05/05 12:04:45;;;;;;;5.88;2.70;;;19.00;23.30;;;;;;5095825;28;20386;-76
2023/05/05 12:07:18;;;;;;;6.82;2.35;;;19.10;24.10;;;;;;5094749;28;20477;-74
2023/05/05 12:09:45;;;;;;;3.75;2.38;;;19.20;25.40;;;;;;5094087;28;20414;-75
2023/05/05 12:12:11;;;;;;;8.05;3.00;;;19.30;25.40;;;;;;5075861;28;20425;-75
2023/05/05 12:14:45;;;;;;;5.43;2.80;;;19.30;28.60;;;;;;5094543;28;20373;-75
2023/05/05 12:17:11;;;;;;;4.90;2.90;;;19.40;29.10;;;;;;5094609;28;20932;-74
2023/05/05 12:19:44;;;;;;;6.80;2.90;;;19.50;29.00;;;;;;5094807;28;20485;-75
2023/05/05 12:22:17;;;;;;;5.80;2.80;;;20.10;27.50;;;;;;5093746;28;20906;-74
2023/05/05 12:24:43;;;;;;;5.45;2.78;;;20.70;24.90;;;;;;5094164;28;20739;-72
2023/05/05 12:27:09;;;;;;;4.20;2.60;;;21.40;23.50;;;;;;5094424;28;20386;-75
2023/05/05 12:29:35;;;;;;;9.15;3.53;;;21.80;21.40;;;;;;5097334;28;20425;-72
2023/05/05 12:32:00;;;;;;;6.55;2.50;;;21.90;20.80;;;;;;5095829;28;20385;-73
2023/05/05 12:34:26;;;;;;;5.17;2.70;;;21.90;21.30;;;;;;5094668;28;20416;-75
2023/05/05 12:36:52;;;;;;;4.20;3.00;;;22.20;20.00;;;;;;5094179;28;20803;-75
2023/05/05 12:39:18;;;;;;;3.90;2.78;;;22.80;19.50;;;;;;5094071;28;20386;-73
2023/05/05 12:41:43;;;;;;;6.13;3.10;;;22.70;20.10;;;;;;5093586;28;20435;-74
2023/05/05 12:44:09;;;;;;;3.93;2.67;;;22.70;19.50;;;;;;5099055;28;20410;-74